Laurel Springs, New Jersey
Current Conditions -  °F | °C
As of 9:54 AM on Saturday 20 Dec 2014 (Local Time) from KVAY Reporting Station
Overcast Overcast  
Wind Chill: 26°   Ceiling: 2700
Heat Index: 32°   Visibility: 10mi
Dew Point: 21°   Wind: 7mph
Humidity: 64%   Direction: 350°N
Pressure: 30.32"   Gusts: NA
Location:  39.8055°N, 74.9997°W
Report Text: KVAY 201454Z AUTO 35006KT 10SM OVC027 00/M06 A3032 RMK AO2 SLP266 T00001061 51018
Loading
Personal Weather Stations






























Interactive Weather Map New forecast layout! Learn more

10-Day Weather Forecast

Advertisements
Track Severe Weather on mobile